Time;durP1;ratioP1;P1;durP2;ratioP2;P2;SDS_P1;SDS_P2;PMS_P1;PMS_P2;Temp;Humidity;BMP_temperature;BMP_pressure;BME280_temperature;BME280_humidity;BME280_pressure;Samples;Min_cycle;Max_cycle;Signal;HPM_P1;HPM_P2
2022/07/12 00:02:02;;;;;;;2.45;1.60;;;;;;;;;;4993691;28;20411;-58
2022/07/12 00:04:28;;;;;;;2.17;1.50;;;;;;;;;;5011081;28;20104;-57
2022/07/12 00:06:55;;;;;;;1.73;1.40;;;;;;;;;;5013613;28;20542;-58
2022/07/12 00:09:21;;;;;;;1.60;1.40;;;;;;;;;;5012186;28;20109;-59
2022/07/12 00:11:47;;;;;;;2.33;1.60;;;;;;;;;;5010523;28;20034;-57
2022/07/12 00:14:13;;;;;;;1.85;1.63;;;;;;;;;;5010872;28;20021;-58
2022/07/12 00:16:39;;;;;;;2.55;1.55;;;;;;;;;;5010677;28;20038;-58
2022/07/12 00:19:05;;;;;;;2.03;1.83;;;;;;;;;;5011709;28;20026;-58
2022/07/12 00:21:31;;;;;;;2.03;1.38;;;;;;;;;;5011093;28;20037;-58
2022/07/12 00:23:57;;;;;;;1.40;1.30;;;;;;;;;;5012907;28;20033;-58
2022/07/12 00:26:24;;;;;;;1.48;1.20;;;;;;;;;;5017079;28;20038;-51
2022/07/12 00:28:49;;;;;;;2.03;1.45;;;;;;;;;;5014932;28;20525;-58
2022/07/12 00:31:16;;;;;;;1.40;1.30;;;;;;;;;;5014692;28;20045;-57
2022/07/12 00:33:42;;;;;;;2.28;1.38;;;;;;;;;;5013699;28;20049;-58
2022/07/12 00:36:08;;;;;;;2.22;1.27;;;;;;;;;;5015648;28;20030;-58
2022/07/12 00:38:34;;;;;;;1.70;1.25;;;;;;;;;;5014951;28;20030;-57
2022/07/12 00:41:00;;;;;;;1.98;1.50;;;;;;;;;;5013460;28;20719;-58
2022/07/12 00:43:26;;;;;;;1.45;1.20;;;;;;;;;;5014995;28;20037;-51
2022/07/12 00:45:52;;;;;;;1.40;1.20;;;;;;;;;;5015141;28;20037;-58
2022/07/12 00:48:18;;;;;;;1.80;1.13;;;;;;;;;;5014930;28;20486;-58
2022/07/12 00:50:46;;;;;;;2.08;1.55;;;;;;;;;;5013748;28;20108;-57
2022/07/12 00:53:13;;;;;;;2.03;1.13;;;;;;;;;;5015111;28;20025;-58
2022/07/12 00:55:39;;;;;;;2.85;1.52;;;;;;;;;;5014383;28;20030;-58
2022/07/12 00:58:05;;;;;;;1.35;1.20;;;;;;;;;;5013069;28;20029;-58
2022/07/12 01:00:31;;;;;;;1.90;1.50;;;;;;;;;;5014313;28;20029;-57
2022/07/12 01:02:57;;;;;;;1.38;1.20;;;;;;;;;;5014981;28;20037;-58
2022/07/12 01:05:24;;;;;;;1.50;1.10;;;;;;;;;;5015208;28;20121;-58
2022/07/12 01:07:50;;;;;;;1.60;1.48;;;;;;;;;;5014082;28;20022;-58
2022/07/12 01:10:17;;;;;;;3.00;1.52;;;;;;;;;;5014169;28;20025;-57
2022/07/12 01:12:43;;;;;;;3.03;1.20;;;;;;;;;;5014200;28;20366;-58
2022/07/12 01:15:10;;;;;;;1.20;1.10;;;;;;;;;;5009413;28;20141;-58
2022/07/12 01:17:36;;;;;;;1.40;1.30;;;;;;;;;;5018748;28;20348;-57
2022/07/12 01:20:04;;;;;;;1.38;1.20;;;;;;;;;;5014681;28;20037;-58
2022/07/12 01:22:31;;;;;;;2.42;1.08;;;;;;;;;;5013017;28;20509;-57
2022/07/12 01:24:58;;;;;;;3.05;1.45;;;;;;;;;;5014166;28;20387;-57
2022/07/12 01:27:24;;;;;;;2.13;1.50;;;;;;;;;;5014681;28;20038;-58
2022/07/12 01:29:50;;;;;;;1.88;1.30;;;;;;;;;;5014012;28;20021;-55
2022/07/12 01:32:25;;;;;;;1.30;1.20;;;;;;;;;;5015467;28;20025;-57
2022/07/12 01:34:53;;;;;;;2.20;1.40;;;;;;;;;;5012930;28;20034;-57
2022/07/12 01:37:19;;;;;;;1.95;1.60;;;;;;;;;;5005281;28;20356;-57
2022/07/12 01:39:46;;;;;;;1.42;1.33;;;;;;;;;;5013123;28;20583;-58
2022/07/12 01:42:12;;;;;;;1.70;1.35;;;;;;;;;;5019877;28;20079;-57
2022/07/12 01:44:39;;;;;;;1.40;1.23;;;;;;;;;;5013411;28;20049;-58
2022/07/12 01:47:05;;;;;;;2.33;1.10;;;;;;;;;;5014458;28;20042;-57
2022/07/12 01:49:30;;;;;;;2.85;1.52;;;;;;;;;;5011809;28;20170;-55
2022/07/12 01:51:57;;;;;;;1.20;1.10;;;;;;;;;;5018790;28;20505;-58
2022/07/12 01:54:26;;;;;;;1.63;1.20;;;;;;;;;;5013785;28;20041;-58
2022/07/12 01:56:53;;;;;;;1.35;1.17;;;;;;;;;;5012827;28;20029;-58
2022/07/12 01:59:22;;;;;;;2.05;1.17;;;;;;;;;;5014175;28;20490;-58
2022/07/12 02:01:48;;;;;;;1.45;1.15;;;;;;;;;;5013576;28;20026;-58
2022/07/12 02:04:17;;;;;;;1.40;1.30;;;;;;;;;;5013189;28;20029;-57
2022/07/12 02:06:44;;;;;;;1.55;1.23;;;;;;;;;;5014597;28;20116;-57
2022/07/12 02:09:11;;;;;;;1.83;1.45;;;;;;;;;;5016944;28;20029;-57
2022/07/12 02:11:37;;;;;;;2.47;1.15;;;;;;;;;;5013067;28;20053;-57
2022/07/12 02:14:03;;;;;;;1.55;1.20;;;;;;;;;;5013838;28;20053;-57
2022/07/12 02:16:29;;;;;;;1.42;1.27;;;;;;;;;;5012739;28;20041;-51
2022/07/12 02:18:55;;;;;;;1.27;1.17;;;;;;;;;;5013418;28;20038;-58
2022/07/12 02:21:21;;;;;;;1.20;1.10;;;;;;;;;;5013442;28;20081;-56
2022/07/12 02:23:47;;;;;;;2.35;2.13;;;;;;;;;;4994413;28;20026;-58
2022/07/12 02:26:13;;;;;;;1.48;1.10;;;;;;;;;;5012933;28;20061;-57
2022/07/12 02:28:39;;;;;;;1.70;1.40;;;;;;;;;;5012642;28;20088;-57
2022/07/12 02:31:05;;;;;;;1.33;1.23;;;;;;;;;;5013280;28;20466;-56
2022/07/12 02:33:31;;;;;;;1.98;1.30;;;;;;;;;;5012316;28;20050;-50
2022/07/12 02:35:57;;;;;;;1.17;1.05;;;;;;;;;;5012331;28;20037;-58
2022/07/12 02:38:23;;;;;;;1.80;1.25;;;;;;;;;;5013362;28;20087;-57
2022/07/12 02:40:55;;;;;;;1.48;1.20;;;;;;;;;;5010595;28;20025;-57
2022/07/12 02:43:21;;;;;;;1.35;1.20;;;;;;;;;;5013429;28;20466;-57
2022/07/12 02:51:19;;;;;;;1.05;0.95;;;;;;;;;;5248109;23;20057;-57
2022/07/12 02:53:45;;;;;;;1.42;1.00;;;;;;;;;;4982289;28;20034;-58
2022/07/12 02:56:11;;;;;;;1.50;1.02;;;;;;;;;;4988729;28;20112;-58
2022/07/12 02:58:37;;;;;;;1.52;1.20;;;;;;;;;;4992626;28;20029;-57
2022/07/12 03:01:03;;;;;;;1.85;0.95;;;;;;;;;;4992549;28;20050;-57
2022/07/12 03:03:29;;;;;;;1.20;1.10;;;;;;;;;;4993063;28;20054;-56
2022/07/12 03:05:56;;;;;;;1.45;0.80;;;;;;;;;;4992595;28;20030;-58
2022/07/12 03:08:22;;;;;;;1.33;1.00;;;;;;;;;;4987287;28;20026;-58
2022/07/12 03:10:48;;;;;;;0.88;0.77;;;;;;;;;;4983001;28;20041;-57
2022/07/12 03:13:13;;;;;;;1.65;1.13;;;;;;;;;;4995734;28;20038;-58
2022/07/12 03:15:39;;;;;;;1.17;0.88;;;;;;;;;;4985093;28;20026;-57
2022/07/12 03:18:06;;;;;;;1.10;0.80;;;;;;;;;;4996210;28;20045;-57
2022/07/12 03:20:32;;;;;;;1.05;0.77;;;;;;;;;;4996848;28;20029;-58
2022/07/12 03:22:58;;;;;;;0.80;0.80;;;;;;;;;;4992037;28;20526;-56
2022/07/12 03:25:24;;;;;;;0.70;0.70;;;;;;;;;;4989696;28;20522;-56
2022/07/12 03:27:51;;;;;;;2.47;1.15;;;;;;;;;;4990717;28;20034;-52
2022/07/12 03:30:17;;;;;;;2.05;1.17;;;;;;;;;;4992136;28;20038;-57
2022/07/12 03:32:44;;;;;;;1.20;0.90;;;;;;;;;;4992688;28;20041;-58
2022/07/12 03:35:10;;;;;;;0.80;0.80;;;;;;;;;;5002371;28;20506;-58
2022/07/12 03:37:48;;;;;;;1.10;1.00;;;;;;;;;;4999754;28;20109;-56
2022/07/12 03:40:14;;;;;;;0.77;0.77;;;;;;;;;;4987938;28;20088;-58
2022/07/12 03:42:40;;;;;;;1.30;0.90;;;;;;;;;;4984418;28;20438;-57
2022/07/12 03:45:07;;;;;;;1.23;0.77;;;;;;;;;;4990200;28;20053;-57
2022/07/12 03:47:34;;;;;;;1.08;0.90;;;;;;;;;;4992361;28;20065;-58
2022/07/12 03:50:02;;;;;;;1.40;0.90;;;;;;;;;;4987433;28;20141;-57
2022/07/12 03:52:28;;;;;;;1.38;0.88;;;;;;;;;;4992450;28;20077;-58
2022/07/12 03:54:54;;;;;;;0.85;0.80;;;;;;;;;;4992087;28;20107;-52
2022/07/12 03:57:20;;;;;;;0.95;0.88;;;;;;;;;;4995183;28;20406;-56
2022/07/12 03:59:46;;;;;;;1.08;0.80;;;;;;;;;;4999219;28;20022;-58
2022/07/12 04:02:13;;;;;;;1.10;1.00;;;;;;;;;;4988058;28;20400;-55
2022/07/12 04:04:39;;;;;;;1.08;0.95;;;;;;;;;;4992123;28;20022;-57
2022/07/12 04:07:05;;;;;;;0.77;0.68;;;;;;;;;;4994827;28;20037;-58
2022/07/12 04:09:31;;;;;;;1.10;0.82;;;;;;;;;;4997168;28;20041;-57
2022/07/12 04:11:58;;;;;;;0.90;0.80;;;;;;;;;;4990910;28;20026;-55
2022/07/12 04:14:24;;;;;;;1.10;0.90;;;;;;;;;;4999605;28;20379;-58
2022/07/12 04:16:50;;;;;;;1.65;1.00;;;;;;;;;;4995461;28;20021;-58
2022/07/12 04:19:16;;;;;;;1.02;0.90;;;;;;;;;;4986718;28;20675;-58
2022/07/12 04:21:42;;;;;;;0.95;0.80;;;;;;;;;;4996058;28;20019;-56
2022/07/12 04:24:08;;;;;;;2.67;1.05;;;;;;;;;;4990539;28;20027;-57
2022/07/12 04:26:33;;;;;;;1.00;0.80;;;;;;;;;;4991691;28;20022;-57
2022/07/12 04:29:00;;;;;;;1.00;0.88;;;;;;;;;;4991311;28;20037;-57
2022/07/12 04:31:26;;;;;;;1.40;1.00;;;;;;;;;;4991527;28;20034;-58
2022/07/12 04:33:52;;;;;;;1.58;1.15;;;;;;;;;;4993341;28;20036;-58
2022/07/12 04:36:18;;;;;;;1.10;0.70;;;;;;;;;;4988411;28;20372;-57
2022/07/12 04:38:44;;;;;;;1.35;0.95;;;;;;;;;;4995962;28;20061;-58
2022/07/12 04:41:10;;;;;;;1.25;0.80;;;;;;;;;;4992410;28;20386;-58
2022/07/12 04:43:36;;;;;;;2.72;1.30;;;;;;;;;;4991202;28;20023;-57
2022/07/12 04:46:09;;;;;;;1.63;1.00;;;;;;;;;;4994680;28;20121;-57
2022/07/12 04:48:35;;;;;;;1.50;1.00;;;;;;;;;;5000483;28;20026;-58
2022/07/12 04:51:01;;;;;;;1.42;1.33;;;;;;;;;;5003094;28;20490;-57
2022/07/12 04:53:28;;;;;;;0.98;0.85;;;;;;;;;;5010187;28;20030;-58
2022/07/12 04:55:57;;;;;;;1.25;0.95;;;;;;;;;;5013340;28;20161;-58
2022/07/12 04:58:23;;;;;;;1.20;1.10;;;;;;;;;;5017339;28;20037;-57
2022/07/12 05:00:50;;;;;;;0.90;0.80;;;;;;;;;;5010286;28;20524;-56
2022/07/12 05:03:16;;;;;;;1.30;1.00;;;;;;;;;;5010268;28;20618;-58
2022/07/12 05:05:42;;;;;;;1.50;1.40;;;;;;;;;;5012789;28;20034;-58
2022/07/12 05:08:08;;;;;;;0.98;0.80;;;;;;;;;;5018973;28;20037;-57
2022/07/12 05:10:34;;;;;;;1.45;1.25;;;;;;;;;;5012313;28;20438;-57
2022/07/12 05:13:00;;;;;;;1.10;0.93;;;;;;;;;;5016580;28;20105;-50
2022/07/12 05:15:26;;;;;;;1.13;0.93;;;;;;;;;;5022000;28;20172;-58
2022/07/12 05:17:52;;;;;;;1.38;1.27;;;;;;;;;;5016568;28;20026;-59
2022/07/12 05:20:19;;;;;;;2.03;1.15;;;;;;;;;;5017334;28;20561;-58
2022/07/12 05:22:45;;;;;;;1.45;1.05;;;;;;;;;;5020255;28;20026;-57
2022/07/12 05:25:11;;;;;;;2.92;1.10;;;;;;;;;;5017369;28;20109;-58
2022/07/12 05:27:37;;;;;;;1.42;1.33;;;;;;;;;;5011884;28;20042;-57
2022/07/12 05:30:04;;;;;;;1.88;1.17;;;;;;;;;;5013856;28;20057;-55
2022/07/12 05:32:30;;;;;;;4.20;1.50;;;;;;;;;;5013797;28;20033;-54
2022/07/12 05:34:56;;;;;;;1.63;1.23;;;;;;;;;;5017473;28;20405;-58
2022/07/12 05:37:24;;;;;;;2.60;1.77;;;;;;;;;;5021007;28;20036;-57
2022/07/12 05:39:50;;;;;;;6.25;2.40;;;;;;;;;;5020757;28;20025;-58
2022/07/12 05:42:16;;;;;;;4.38;2.63;;;;;;;;;;5012944;28;20026;-59
2022/07/12 05:44:42;;;;;;;4.38;2.20;;;;;;;;;;5013687;28;20424;-58
2022/07/12 05:47:08;;;;;;;5.72;2.70;;;;;;;;;;5019448;28;20037;-58
2022/07/12 05:49:34;;;;;;;4.53;2.60;;;;;;;;;;5017444;28;20152;-58
2022/07/12 05:54:45;;;;;;;5.55;2.75;;;;;;;;;;4999936;28;20391;-58
2022/07/12 05:57:11;;;;;;;4.03;2.42;;;;;;;;;;5001409;28;20038;-58
2022/07/12 05:59:37;;;;;;;5.80;2.67;;;;;;;;;;4993899;28;20105;-57
2022/07/12 06:02:04;;;;;;;7.80;2.83;;;;;;;;;;5000208;28;20379;-56
2022/07/12 06:04:30;;;;;;;8.40;2.30;;;;;;;;;;4999035;28;20018;-58
2022/07/12 06:06:56;;;;;;;4.63;2.47;;;;;;;;;;4993905;28;20046;-58
2022/07/12 06:09:22;;;;;;;6.47;2.00;;;;;;;;;;4999057;28;20080;-58
2022/07/12 06:11:48;;;;;;;3.10;2.17;;;;;;;;;;4996689;28;20038;-60
2022/07/12 06:14:14;;;;;;;2.92;1.88;;;;;;;;;;4999506;28;20027;-58
2022/07/12 06:16:40;;;;;;;5.05;2.45;;;;;;;;;;4997377;28;20557;-59
2022/07/12 06:19:06;;;;;;;3.85;1.83;;;;;;;;;;4991924;28;20030;-58
2022/07/12 06:21:33;;;;;;;4.35;2.28;;;;;;;;;;4992511;28;20026;-57
2022/07/12 06:23:59;;;;;;;3.83;2.30;;;;;;;;;;4983997;28;20121;-59
2022/07/12 06:26:25;;;;;;;4.35;2.22;;;;;;;;;;4984170;28;20061;-58
2022/07/12 06:28:51;;;;;;;5.72;2.13;;;;;;;;;;4991112;28;20038;-59
2022/07/12 06:31:17;;;;;;;5.28;3.10;;;;;;;;;;4992660;28;20090;-57
2022/07/12 06:33:43;;;;;;;6.35;2.17;;;;;;;;;;4986046;28;20022;-58
2022/07/12 06:36:09;;;;;;;4.15;2.10;;;;;;;;;;4991071;28;20030;-56
2022/07/12 06:38:35;;;;;;;3.08;2.03;;;;;;;;;;4971412;28;20378;-58
2022/07/12 06:41:01;;;;;;;4.65;1.90;;;;;;;;;;4992395;28;20053;-54
2022/07/12 06:43:27;;;;;;;2.17;1.60;;;;;;;;;;4991977;28;20414;-58
2022/07/12 06:45:53;;;;;;;3.00;1.60;;;;;;;;;;4998890;28;20034;-58
2022/07/12 06:48:19;;;;;;;2.85;1.50;;;;;;;;;;4991504;28;20057;-58
2022/07/12 06:50:45;;;;;;;2.17;1.40;;;;;;;;;;4992172;28;20081;-57
2022/07/12 06:53:12;;;;;;;2.50;1.35;;;;;;;;;;4991581;28;20057;-58
2022/07/12 06:55:38;;;;;;;2.15;1.70;;;;;;;;;;4992156;28;20105;-58
2022/07/12 06:58:04;;;;;;;4.80;1.48;;;;;;;;;;4990621;28;20065;-52
2022/07/12 07:00:30;;;;;;;3.00;1.52;;;;;;;;;;4995384;28;20082;-58
2022/07/12 07:02:56;;;;;;;2.88;1.70;;;;;;;;;;4991184;28;20034;-58
2022/07/12 07:05:23;;;;;;;6.32;1.80;;;;;;;;;;4987624;28;20093;-58
2022/07/12 07:07:49;;;;;;;3.28;1.50;;;;;;;;;;4991211;28;20030;-58
2022/07/12 07:10:15;;;;;;;1.92;1.30;;;;;;;;;;4993649;28;20098;-57
2022/07/12 07:12:41;;;;;;;4.13;1.50;;;;;;;;;;4991010;28;20026;-58
2022/07/12 07:15:07;;;;;;;4.53;1.42;;;;;;;;;;4989705;28;20430;-58
2022/07/12 07:17:34;;;;;;;4.18;1.25;;;;;;;;;;4993061;28;20038;-58
2022/07/12 07:20:00;;;;;;;3.10;1.73;;;;;;;;;;4992764;28;20194;-58
2022/07/12 07:22:27;;;;;;;7.35;1.90;;;;;;;;;;4996098;28;20062;-58
2022/07/12 07:24:53;;;;;;;2.42;1.27;;;;;;;;;;4992235;28;20030;-58
2022/07/12 07:27:19;;;;;;;2.42;1.17;;;;;;;;;;4994526;28;20073;-58
2022/07/12 07:32:31;;;;;;;1.45;0.90;;;;;;;;;;4992286;28;20755;-58
2022/07/12 07:34:57;;;;;;;2.03;0.90;;;;;;;;;;4991915;28;20050;-58
2022/07/12 07:37:23;;;;;;;3.38;1.00;;;;;;;;;;4991350;28;20076;-58
2022/07/12 07:39:49;;;;;;;1.10;0.70;;;;;;;;;;4994620;28;20108;-57
2022/07/12 07:42:17;;;;;;;2.90;1.00;;;;;;;;;;4991426;28;20062;-56
2022/07/12 07:44:43;;;;;;;2.53;0.73;;;;;;;;;;4993821;28;20058;-58
2022/07/12 07:47:09;;;;;;;1.00;0.75;;;;;;;;;;4991150;28;20054;-58
2022/07/12 07:49:35;;;;;;;0.93;0.45;;;;;;;;;;4991529;28;20038;-58
2022/07/12 07:52:01;;;;;;;0.95;0.65;;;;;;;;;;4991650;28;20081;-57
2022/07/12 07:54:27;;;;;;;1.58;0.85;;;;;;;;;;4988744;28;20123;-53
2022/07/12 07:56:53;;;;;;;1.45;0.70;;;;;;;;;;4986202;28;20441;-57
2022/07/12 07:59:19;;;;;;;3.65;0.65;;;;;;;;;;4991301;28;20026;-57
2022/07/12 08:01:45;;;;;;;2.55;0.80;;;;;;;;;;4996296;28;20022;-60
2022/07/12 08:04:18;;;;;;;1.63;0.50;;;;;;;;;;4990808;28;20474;-58
2022/07/12 08:06:44;;;;;;;0.98;0.85;;;;;;;;;;4991582;28;20026;-58
2022/07/12 08:09:10;;;;;;;3.00;0.75;;;;;;;;;;4994018;28;20042;-57
2022/07/12 08:11:37;;;;;;;2.17;0.88;;;;;;;;;;4991306;28;20026;-55
2022/07/12 08:14:03;;;;;;;2.65;0.63;;;;;;;;;;4991610;28;20042;-56
2022/07/12 08:16:30;;;;;;;3.67;0.70;;;;;;;;;;4988410;28;20077;-57
2022/07/12 08:18:56;;;;;;;0.68;0.50;;;;;;;;;;4991449;28;20073;-57
2022/07/12 08:21:22;;;;;;;2.33;0.50;;;;;;;;;;4997104;28;20037;-57
2022/07/12 08:23:48;;;;;;;0.60;0.40;;;;;;;;;;4990560;28;20035;-57
2022/07/12 08:26:14;;;;;;;0.90;0.60;;;;;;;;;;4994334;28;20034;-58
2022/07/12 08:28:40;;;;;;;1.20;0.60;;;;;;;;;;4991486;28;20482;-58
2022/07/12 08:31:07;;;;;;;2.15;0.65;;;;;;;;;;4987643;28;20082;-51
2022/07/12 08:33:33;;;;;;;3.08;0.60;;;;;;;;;;4974396;28;20093;-58
2022/07/12 08:35:59;;;;;;;1.05;0.40;;;;;;;;;;4994604;28;20133;-58
2022/07/12 08:38:25;;;;;;;0.75;0.30;;;;;;;;;;4991615;28;20034;-58
2022/07/12 08:40:51;;;;;;;1.58;0.40;;;;;;;;;;4981904;28;20034;-58
2022/07/12 08:43:17;;;;;;;0.50;0.50;;;;;;;;;;4993942;28;20031;-57
2022/07/12 08:45:43;;;;;;;0.43;0.40;;;;;;;;;;4995043;28;20089;-59
2022/07/12 08:48:09;;;;;;;2.08;0.60;;;;;;;;;;4992871;28;20035;-56
2022/07/12 08:50:35;;;;;;;0.40;0.38;;;;;;;;;;4997978;28;20124;-54
2022/07/12 08:53:01;;;;;;;1.27;0.55;;;;;;;;;;4995105;28;20037;-57
2022/07/12 08:55:29;;;;;;;2.15;0.40;;;;;;;;;;4999048;28;20045;-57
2022/07/12 08:57:57;;;;;;;1.48;0.50;;;;;;;;;;4994145;28;20031;-57
2022/07/12 09:00:23;;;;;;;1.80;0.60;;;;;;;;;;4993793;28;20026;-57
2022/07/12 09:02:50;;;;;;;1.90;0.50;;;;;;;;;;4991637;28;20026;-57
2022/07/12 09:05:18;;;;;;;0.52;0.52;;;;;;;;;;4994953;28;20437;-57
2022/07/12 09:07:44;;;;;;;0.40;0.40;;;;;;;;;;4995090;28;20475;-57
2022/07/12 09:10:11;;;;;;;1.40;0.60;;;;;;;;;;4997658;28;20125;-56
2022/07/12 09:12:38;;;;;;;0.50;0.50;;;;;;;;;;4994607;28;20022;-57
2022/07/12 09:15:33;;;;;;;1.15;0.47;;;;;;;;;;4993329;28;20100;-58
2022/07/12 09:18:00;;;;;;;0.85;0.57;;;;;;;;;;4983536;28;20109;-57
2022/07/12 09:20:26;;;;;;;2.80;0.60;;;;;;;;;;4997841;28;20092;-57
2022/07/12 09:22:57;;;;;;;1.42;0.50;;;;;;;;;;4994590;28;20026;-58
2022/07/12 09:25:23;;;;;;;1.27;0.60;;;;;;;;;;4993105;28;20470;-58
2022/07/12 09:27:53;;;;;;;1.33;0.63;;;;;;;;;;4994628;28;20031;-57
2022/07/12 09:30:20;;;;;;;0.80;0.50;;;;;;;;;;4994036;28;20068;-57
2022/07/12 09:38:19;;;;;;;1.02;0.50;;;;;;;;;;4989909;28;20050;-58
2022/07/12 09:40:46;;;;;;;1.00;0.50;;;;;;;;;;4990453;28;20026;-57
2022/07/12 09:43:13;;;;;;;0.55;0.50;;;;;;;;;;4993020;28;20453;-57
2022/07/12 09:45:44;;;;;;;0.50;0.40;;;;;;;;;;4995734;28;20053;-56
2022/07/12 09:48:13;;;;;;;0.55;0.40;;;;;;;;;;4996620;28;20035;-50
2022/07/12 09:50:39;;;;;;;1.10;0.30;;;;;;;;;;4993762;28;20058;-57
2022/07/12 09:53:06;;;;;;;2.40;0.60;;;;;;;;;;4996186;28;20050;-57
2022/07/12 09:55:33;;;;;;;0.65;0.63;;;;;;;;;;4992511;28;20026;-58
2022/07/12 09:58:02;;;;;;;1.00;0.45;;;;;;;;;;4999975;28;20495;-57
2022/07/12 10:00:29;;;;;;;0.93;0.70;;;;;;;;;;4993076;28;20053;-57
2022/07/12 10:02:56;;;;;;;0.50;0.30;;;;;;;;;;4992827;28;20495;-57
2022/07/12 10:05:24;;;;;;;0.88;0.50;;;;;;;;;;4991637;28;20386;-58
2022/07/12 10:07:50;;;;;;;2.03;0.50;;;;;;;;;;4993703;28;20038;-57
2022/07/12 10:10:17;;;;;;;0.45;0.40;;;;;;;;;;4996848;28;20367;-57
2022/07/12 10:12:43;;;;;;;1.30;0.50;;;;;;;;;;4994717;28;20046;-56
2022/07/12 10:15:16;;;;;;;1.13;0.40;;;;;;;;;;4993624;28;20127;-54
2022/07/12 10:17:50;;;;;;;1.88;0.40;;;;;;;;;;4993634;28;20030;-57
2022/07/12 10:20:17;;;;;;;1.52;0.50;;;;;;;;;;4996085;28;20030;-57
2022/07/12 10:22:44;;;;;;;1.90;0.55;;;;;;;;;;4992884;28;20382;-56
2022/07/12 10:25:29;;;;;;;2.35;0.40;;;;;;;;;;4995746;28;20486;-52
2022/07/12 10:27:55;;;;;;;1.55;0.60;;;;;;;;;;4989784;28;20189;-57
2022/07/12 10:30:22;;;;;;;3.65;0.60;;;;;;;;;;4998738;28;20510;-55
2022/07/12 10:32:49;;;;;;;1.15;0.50;;;;;;;;;;4982188;28;20053;-55
2022/07/12 10:35:17;;;;;;;0.93;0.57;;;;;;;;;;4991382;28;20024;-56
2022/07/12 10:38:03;;;;;;;1.95;0.40;;;;;;;;;;4991693;28;20030;-53
2022/07/12 10:40:34;;;;;;;3.92;0.60;;;;;;;;;;4979181;28;20511;-59
2022/07/12 10:43:07;;;;;;;2.10;0.80;;;;;;;;;;4993134;28;20431;-58
2022/07/12 10:45:34;;;;;;;3.00;1.15;;;;;;;;;;4992725;28;20881;-58
2022/07/12 10:48:01;;;;;;;3.13;0.47;;;;;;;;;;4991124;28;20062;-58
2022/07/12 10:50:45;;;;;;;0.73;0.45;;;;;;;;;;4998213;28;20061;-59
2022/07/12 10:53:26;;;;;;;1.98;0.40;;;;;;;;;;5010600;28;20026;-53
2022/07/12 10:56:16;;;;;;;0.85;0.30;;;;;;;;;;5010506;28;20041;-60
2022/07/12 10:59:11;;;;;;;7.15;1.15;;;;;;;;;;5006986;28;20105;-59
2022/07/12 11:01:37;;;;;;;0.32;0.32;;;;;;;;;;4989489;28;20478;-58
2022/07/12 11:04:06;;;;;;;1.38;0.40;;;;;;;;;;5012680;28;20045;-59
2022/07/12 11:06:34;;;;;;;0.40;0.35;;;;;;;;;;5009539;28;20569;-57
2022/07/12 11:09:02;;;;;;;0.82;0.40;;;;;;;;;;5011833;28;20080;-59
2022/07/12 11:11:43;;;;;;;0.82;0.57;;;;;;;;;;5009836;28;20041;-59
2022/07/12 11:14:09;;;;;;;0.57;0.50;;;;;;;;;;5010200;28;20391;-58
2022/07/12 11:16:35;;;;;;;0.40;0.40;;;;;;;;;;5009757;28;20420;-58
2022/07/12 11:19:01;;;;;;;0.35;0.30;;;;;;;;;;5009661;28;20482;-60
2022/07/12 11:21:27;;;;;;;0.90;0.40;;;;;;;;;;5010569;28;20030;-59
2022/07/12 11:23:54;;;;;;;2.42;0.60;;;;;;;;;;5010159;28;20095;-59
2022/07/12 11:26:20;;;;;;;1.02;0.50;;;;;;;;;;5009967;28;20395;-58
2022/07/12 11:28:48;;;;;;;0.88;0.45;;;;;;;;;;5011911;28;20489;-61
2022/07/12 11:31:15;;;;;;;0.60;0.50;;;;;;;;;;5010454;28;20037;-56
2022/07/12 11:33:47;;;;;;;1.05;0.50;;;;;;;;;;5010041;28;20021;-58
2022/07/12 11:36:14;;;;;;;0.57;0.40;;;;;;;;;;5010318;28;20100;-55
2022/07/12 11:38:40;;;;;;;0.50;0.30;;;;;;;;;;5010453;28;20033;-61
2022/07/12 11:41:07;;;;;;;0.40;0.40;;;;;;;;;;5009177;28;20092;-57
2022/07/12 11:43:34;;;;;;;0.55;0.40;;;;;;;;;;5008819;28;20096;-60
2022/07/12 11:46:00;;;;;;;0.82;0.50;;;;;;;;;;5010402;28;20048;-62
2022/07/12 11:48:27;;;;;;;0.40;0.40;;;;;;;;;;5014739;28;20034;-58
2022/07/12 11:50:54;;;;;;;0.75;0.40;;;;;;;;;;5000611;28;20050;-57
2022/07/12 11:53:20;;;;;;;0.45;0.35;;;;;;;;;;4988307;28;20035;-58
2022/07/12 11:55:47;;;;;;;0.80;0.50;;;;;;;;;;4983782;28;20105;-58
2022/07/12 11:58:14;;;;;;;1.08;0.40;;;;;;;;;;4990695;28;20030;-52
2022/07/12 12:00:40;;;;;;;0.50;0.50;;;;;;;;;;4990216;28;20089;-58
2022/07/12 12:03:06;;;;;;;0.70;0.50;;;;;;;;;;4991472;28;20030;-56
2022/07/12 12:05:32;;;;;;;0.77;0.40;;;;;;;;;;4991145;28;20486;-58
2022/07/12 12:07:58;;;;;;;7.18;1.00;;;;;;;;;;4989791;28;20138;-58
2022/07/12 12:10:24;;;;;;;0.60;0.38;;;;;;;;;;4987569;28;20509;-58
2022/07/12 12:12:54;;;;;;;1.15;0.40;;;;;;;;;;4984961;28;20034;-57
2022/07/12 12:15:40;;;;;;;0.85;0.55;;;;;;;;;;4990399;28;20106;-56
2022/07/12 12:18:07;;;;;;;0.85;0.40;;;;;;;;;;4990352;28;20056;-56
2022/07/12 12:20:34;;;;;;;2.63;0.30;;;;;;;;;;4991064;28;20034;-57
2022/07/12 12:23:01;;;;;;;0.20;0.20;;;;;;;;;;4993801;28;20034;-57
2022/07/12 12:25:28;;;;;;;0.40;0.30;;;;;;;;;;4990671;28;20026;-57
2022/07/12 12:28:03;;;;;;;1.10;0.40;;;;;;;;;;4986394;28;20035;-57
2022/07/12 12:30:30;;;;;;;0.52;0.32;;;;;;;;;;4992664;28;20383;-56
2022/07/12 12:32:57;;;;;;;0.68;0.35;;;;;;;;;;4985756;28;20057;-55
2022/07/12 12:35:24;;;;;;;0.47;0.30;;;;;;;;;;4985970;28;20034;-56
2022/07/12 12:37:50;;;;;;;0.30;0.30;;;;;;;;;;4991325;28;20041;-57
2022/07/12 12:40:20;;;;;;;0.73;0.40;;;;;;;;;;4996431;28;20014;-52
2022/07/12 12:42:47;;;;;;;0.65;0.45;;;;;;;;;;4992366;28;20379;-55
2022/07/12 12:45:20;;;;;;;1.23;0.35;;;;;;;;;;4987306;28;20026;-56
2022/07/12 12:47:56;;;;;;;0.60;0.28;;;;;;;;;;4991790;28;20484;-57
2022/07/12 12:50:48;;;;;;;0.22;0.22;;;;;;;;;;5001868;28;20791;-57
2022/07/12 12:53:21;;;;;;;0.52;0.47;;;;;;;;;;5006120;28;20438;-56
2022/07/12 12:55:50;;;;;;;1.42;0.30;;;;;;;;;;5011240;28;20029;-56
2022/07/12 12:58:18;;;;;;;0.93;0.55;;;;;;;;;;5014838;28;20470;-49
2022/07/12 13:00:45;;;;;;;1.55;0.30;;;;;;;;;;5010899;28;20061;-57
2022/07/12 13:03:12;;;;;;;1.67;0.40;;;;;;;;;;4992245;28;20440;-56
2022/07/12 13:05:39;;;;;;;0.82;0.35;;;;;;;;;;5012006;28;20632;-57
2022/07/12 13:08:05;;;;;;;0.50;0.30;;;;;;;;;;5011255;28;20489;-57
2022/07/12 13:10:32;;;;;;;0.82;0.40;;;;;;;;;;5007366;28;20030;-56
2022/07/12 13:12:59;;;;;;;0.60;0.60;;;;;;;;;;5016731;28;20038;-57
2022/07/12 13:15:25;;;;;;;0.60;0.35;;;;;;;;;;5015513;28;20391;-57
2022/07/12 13:17:51;;;;;;;0.35;0.30;;;;;;;;;;5009084;28;20113;-55
2022/07/12 13:20:17;;;;;;;0.47;0.40;;;;;;;;;;5011697;28;20037;-51
2022/07/12 13:22:43;;;;;;;0.20;0.20;;;;;;;;;;5009336;28;20026;-56
2022/07/12 13:25:13;;;;;;;0.28;0.28;;;;;;;;;;5003611;28;20111;-57
2022/07/12 13:27:40;;;;;;;0.63;0.40;;;;;;;;;;5010128;28;20061;-56
2022/07/12 13:30:07;;;;;;;0.38;0.30;;;;;;;;;;5012101;28;20040;-55
2022/07/12 13:32:33;;;;;;;1.13;0.30;;;;;;;;;;5011825;28;20089;-54
2022/07/12 13:35:00;;;;;;;0.55;0.30;;;;;;;;;;5017529;28;20584;-57
2022/07/12 13:37:26;;;;;;;0.60;0.35;;;;;;;;;;5011880;28;20060;-57
2022/07/12 13:42:36;;;;;;;0.95;0.32;;;;;;;;;;5010223;28;20061;-57
2022/07/12 13:45:03;;;;;;;0.52;0.30;;;;;;;;;;5013724;28;20092;-57
2022/07/12 13:47:29;;;;;;;1.00;0.50;;;;;;;;;;4999334;28;20034;-57
2022/07/12 13:49:55;;;;;;;0.50;0.30;;;;;;;;;;5018953;28;20025;-56
2022/07/12 13:52:21;;;;;;;0.50;0.35;;;;;;;;;;5013970;28;20386;-50
2022/07/12 13:54:47;;;;;;;0.40;0.40;;;;;;;;;;5013930;28;20030;-57
2022/07/12 13:57:13;;;;;;;0.30;0.30;;;;;;;;;;4997654;28;20037;-57
2022/07/12 13:59:39;;;;;;;0.50;0.30;;;;;;;;;;5012473;28;20675;-57
2022/07/12 14:02:06;;;;;;;0.73;0.50;;;;;;;;;;5013498;28;20025;-57
2022/07/12 14:04:32;;;;;;;0.30;0.30;;;;;;;;;;5012089;28;20091;-57
2022/07/12 14:06:58;;;;;;;1.15;0.30;;;;;;;;;;5019475;28;20069;-57
2022/07/12 14:09:24;;;;;;;10.15;0.65;;;;;;;;;;5010726;28;20527;-57
2022/07/12 14:11:50;;;;;;;0.43;0.40;;;;;;;;;;5013951;28;20087;-58
2022/07/12 14:14:33;;;;;;;1.58;0.28;;;;;;;;;;5014378;28;20109;-58
2022/07/12 14:17:00;;;;;;;1.77;0.30;;;;;;;;;;5002031;28;20030;-58
2022/07/12 14:19:25;;;;;;;2.25;0.30;;;;;;;;;;5011637;28;20034;-58
2022/07/12 14:21:51;;;;;;;5.70;0.50;;;;;;;;;;5009560;28;20048;-57
2022/07/12 14:24:18;;;;;;;0.32;0.30;;;;;;;;;;5011212;28;20028;-52
2022/07/12 14:26:44;;;;;;;3.47;0.30;;;;;;;;;;5011465;28;20880;-56
2022/07/12 14:29:10;;;;;;;4.30;0.35;;;;;;;;;;5012047;28;20037;-59
2022/07/12 14:31:36;;;;;;;0.70;0.40;;;;;;;;;;5006952;28;20080;-57
2022/07/12 14:34:01;;;;;;;0.63;0.30;;;;;;;;;;5008333;28;20022;-58
2022/07/12 14:36:27;;;;;;;0.93;0.38;;;;;;;;;;5007835;28;20474;-56
2022/07/12 14:38:53;;;;;;;3.03;0.43;;;;;;;;;;5007608;28;20053;-58
2022/07/12 14:41:20;;;;;;;2.97;0.40;;;;;;;;;;4990169;28;20022;-57
2022/07/12 14:43:47;;;;;;;2.67;0.40;;;;;;;;;;5016424;28;20045;-57
2022/07/12 14:46:13;;;;;;;1.30;0.43;;;;;;;;;;5012723;28;20036;-57
2022/07/12 14:48:39;;;;;;;0.60;0.30;;;;;;;;;;5016980;28;20105;-57
2022/07/12 14:51:05;;;;;;;3.83;0.30;;;;;;;;;;5000370;28;20503;-58
2022/07/12 14:53:31;;;;;;;0.30;0.30;;;;;;;;;;4991208;28;20030;-58
2022/07/12 14:55:57;;;;;;;0.75;0.30;;;;;;;;;;4994923;28;20434;-58
2022/07/12 14:58:23;;;;;;;0.65;0.25;;;;;;;;;;4994365;28;20101;-53
2022/07/12 15:00:49;;;;;;;0.60;0.30;;;;;;;;;;4995475;28;20038;-58
2022/07/12 15:03:15;;;;;;;1.58;0.47;;;;;;;;;;4991596;28;20037;-57